Consulta los datos en tiempo real de la estación municipal de Susqueda - St. Martí Sacalm
| Hora UTC | 05:15 |
|---|---|
| Temperatura | 23.6 ºC |
| Humedad | 59.5 % |
| Presión | 1024.1 hPa |
| Pluja | 0.0 mm |
| Velocidad viento | 11.5 km/h |
| Dirección viento | SW |
| Radiación solar | 2.6 W/m² |
| Temperatura (ºC) | Humedad (%) | Presión (hPa) | Velocidad viento (km/h) | Precipitación (mm) | Radiación solar (W/m²) | |||||||||||||
|---|---|---|---|---|---|---|---|---|---|---|---|---|---|---|---|---|---|---|
| Hora UTC | Aire | Humedad | Presión | Vel. | Dir. | Vel. Max | Dir. | Intent. máx 5 min. | Rad. Sol. | |||||||||
| 00:05 | 26.1 | 50.4 | 1024.2 | 2.1 | NE | 2.1 | NNE | 0.0 | 0.1 | |||||||||
| 00:10 | 26.5 | 49.7 | 1024.2 | 3.6 | NNE | 5.7 | N | 0.0 | 0.1 | |||||||||
| 00:15 | 26.6 | 50.5 | 1024.2 | 0.1 | N | 2.1 | N | 0.0 | 0.1 | |||||||||
| 00:20 | 26.2 | 53.4 | 1024.2 | 0.0 | NNE | 0.0 | SW | 0.0 | 0.1 | |||||||||
| 00:25 | 26.1 | 53.7 | 1024.2 | 0.0 | NNE | 0.0 | N | 0.0 | 0.1 | |||||||||
| 00:30 | 26.1 | 51.7 | 1024.1 | 0.2 | NNE | 3.5 | NNE | 0.0 | 0.1 | |||||||||
| 00:35 | 26.5 | 50.6 | 1024.1 | 0.9 | NE | 4.2 | NE | 0.0 | 0.2 | |||||||||
| 00:40 | 26.3 | 53.7 | 1024.1 | 0.0 | NNE | 0.0 | ENE | 0.0 | 0.1 | |||||||||
| 00:45 | 25.8 | 56.1 | 1024.1 | 0.0 | NNE | 0.0 | SW | 0.0 | 0.1 | |||||||||
| 00:50 | 25.8 | 55.9 | 1024.1 | 0.0 | NNE | 0.0 | SSW | 0.0 | 0.1 | |||||||||
| 00:55 | 25.6 | 56.6 | 1024.1 | 0.0 | NNE | 0.0 | SW | 0.0 | 0.1 | |||||||||
| 01:00 | 25.4 | 57.3 | 1024.1 | 5.1 | SW | 6.7 | SW | 0.0 | 0.1 | |||||||||
| 01:05 | 25.2 | 57.8 | 1024.1 | 4.0 | SW | 5.3 | SW | 0.0 | 0.1 | |||||||||
| 01:10 | 25.1 | 58.2 | 1024.1 | 5.5 | SW | 7.1 | SW | 0.0 | 0.1 | |||||||||
| 01:15 | 25.1 | 58.1 | 1024.1 | 5.1 | SW | 6.4 | SW | 0.0 | 0.1 | |||||||||
| 01:20 | 25.0 | 58.0 | 1024.1 | 5.4 | SW | 6.0 | SW | 0.0 | 0.1 | |||||||||
| 01:25 | 25.1 | 56.7 | 1024.1 | 4.5 | SW | 7.1 | SW | 0.0 | 0.1 | |||||||||
| 01:30 | 25.2 | 56.0 | 1024.1 | 1.2 | SW | 8.5 | SW | 0.0 | 0.1 | |||||||||
| 01:35 | 24.6 | 58.5 | 1024.1 | 7.9 | SW | 8.8 | SW | 0.0 | 0.1 | |||||||||
| 01:40 | 24.5 | 59.3 | 1024.1 | 7.3 | SW | 8.8 | SW | 0.0 | 0.1 | |||||||||
| 01:45 | 24.4 | 59.8 | 1024.0 | 0.0 | NNE | 0.0 | SW | 0.0 | 0.1 | |||||||||
| 01:50 | 24.6 | 59.3 | 1024.1 | 1.3 | SSW | 8.5 | SSW | 0.0 | 0.1 | |||||||||
| 01:55 | 24.6 | 59.3 | 1024.1 | 7.9 | SW | 9.2 | SSW | 0.0 | 0.1 | |||||||||
| 02:00 | 24.5 | 59.6 | 1024.1 | 3.5 | SW | 8.1 | SW | 0.0 | 0.1 | |||||||||
| 02:05 | 24.6 | 59.6 | 1024.1 | 0.0 | NNE | 0.0 | SW | 0.0 | 0.1 | |||||||||
| 02:10 | 24.7 | 59.5 | 1024.1 | 6.3 | SW | 8.5 | SW | 0.0 | 0.1 | |||||||||
| 02:15 | 24.6 | 59.9 | 1024.0 | 7.8 | SW | 9.5 | SW | 0.0 | 0.1 | |||||||||
| 02:20 | 24.3 | 60.6 | 1024.0 | 7.5 | SW | 8.8 | SSW | 0.0 | 0.1 | |||||||||
| 02:25 | 24.1 | 61.3 | 1024.0 | 8.4 | SSW | 9.9 | SSW | 0.0 | 0.1 | |||||||||
| 02:30 | 24.0 | 61.0 | 1024.0 | 8.7 | SSW | 10.3 | SW | 0.0 | 0.1 | |||||||||
| 02:35 | 24.2 | 59.1 | 1024.0 | 8.6 | SW | 10.3 | SSW | 0.0 | 0.1 | |||||||||
| 02:40 | 24.2 | 58.5 | 1023.9 | 8.1 | SW | 10.3 | SW | 0.0 | 0.1 | |||||||||
| 02:45 | 24.0 | 58.7 | 1023.9 | 8.6 | SW | 11.3 | SW | 0.0 | 0.1 | |||||||||
| 02:50 | 24.0 | 58.3 | 1023.9 | 10.2 | SW | 12.4 | SW | 0.0 | 0.1 | |||||||||
| 02:55 | 24.0 | 57.9 | 1023.9 | 10.6 | SW | 12.7 | SW | 0.0 | 0.1 | |||||||||
| 03:00 | 24.1 | 57.6 | 1023.9 | 10.8 | SW | 12.7 | SW | 0.0 | 0.1 | |||||||||
| 03:05 | 24.0 | 57.8 | 1023.9 | 10.3 | SW | 13.4 | SW | 0.0 | 0.1 | |||||||||
| 03:10 | 24.0 | 59.0 | 1023.9 | 10.4 | SW | 12.4 | SSW | 0.0 | 0.1 | |||||||||
| 03:15 | 24.0 | 59.6 | 1023.9 | 11.2 | SW | 13.1 | SW | 0.0 | 0.1 | |||||||||
| 03:20 | 23.9 | 59.8 | 1023.9 | 10.6 | SW | 12.7 | SW | 0.0 | 0.1 | |||||||||
| 03:25 | 23.8 | 59.6 | 1023.9 | 10.4 | SSW | 14.1 | SW | 0.0 | 0.1 | |||||||||
| 03:30 | 24.0 | 58.5 | 1023.9 | 10.8 | SSW | 14.5 | SSW | 0.0 | 0.1 | |||||||||
| 03:35 | 23.9 | 58.3 | 1023.9 | 10.7 | SSW | 14.8 | SSW | 0.0 | 0.1 | |||||||||
| 03:40 | 23.9 | 58.8 | 1023.9 | 10.4 | SSW | 13.4 | SSW | 0.0 | 0.1 | |||||||||
| 03:45 | 23.8 | 58.3 | 1023.9 | 10.4 | SSW | 13.1 | SSW | 0.0 | 0.1 | |||||||||
| 03:50 | 23.9 | 58.0 | 1023.8 | 10.5 | SSW | 13.1 | SSW | 0.0 | 0.2 | |||||||||
| 03:55 | 23.8 | 57.7 | 1023.8 | 12.0 | SW | 16.6 | SW | 0.0 | 0.1 | |||||||||
| 04:00 | 23.9 | 56.9 | 1023.8 | 12.5 | SW | 15.2 | SW | 0.0 | 0.1 | |||||||||
| 04:05 | 23.9 | 56.6 | 1023.8 | 12.8 | SW | 15.5 | SW | 0.0 | 0.1 | |||||||||
| 04:10 | 23.7 | 57.2 | 1023.8 | 12.2 | SW | 14.1 | SW | 0.0 | 0.1 | |||||||||
| 04:15 | 23.7 | 57.4 | 1023.7 | 12.2 | SW | 14.5 | SW | 0.0 | 0.1 | |||||||||
| 04:20 | 23.7 | 58.2 | 1023.7 | 12.5 | SW | 14.5 | SW | 0.0 | 0.1 | |||||||||
| 04:25 | 23.6 | 58.7 | 1023.7 | 12.8 | SW | 14.8 | SW | 0.0 | 0.1 | |||||||||
| 04:30 | 23.6 | 59.3 | 1023.7 | 11.2 | SSW | 13.1 | SSW | 0.0 | 0.1 | |||||||||
| 04:35 | 23.4 | 60.1 | 1023.8 | 11.0 | SSW | 14.8 | SSW | 0.0 | 0.1 | |||||||||
| 04:40 | 23.7 | 58.9 | 1023.9 | 11.3 | SSW | 15.2 | SSW | 0.0 | 0.1 | |||||||||
| 04:45 | 23.8 | 58.6 | 1023.9 | 11.9 | SSW | 16.6 | SSW | 0.0 | 0.1 | |||||||||
| 04:50 | 23.7 | 58.9 | 1023.9 | 11.4 | SW | 15.2 | SW | 0.0 | 0.1 | |||||||||
| 04:55 | 23.7 | 58.4 | 1023.9 | 9.9 | SW | 13.1 | SSW | 0.0 | 0.2 | |||||||||
| 05:00 | 23.6 | 59.1 | 1024.0 | 9.3 | SSW | 12.0 | SW | 0.0 | 0.4 | |||||||||
| 05:05 | 23.5 | 59.8 | 1024.0 | 10.5 | SW | 14.8 | SW | 0.0 | 0.8 | |||||||||
| 05:10 | 23.6 | 59.5 | 1024.1 | 12.0 | SW | 14.5 | SSW | 0.0 | 1.6 | |||||||||
| 05:15 | 23.6 | 59.5 | 1024.1 | 11.5 | SW | 15.9 | SSW | 0.0 | 2.6 | |||||||||
| Máxima | 26.6 | 61.3 | 1024.2 | 12.8 | SW | 16.6 | SSW | 0.0 | 2.6 | |||||||||
| Mínima | 20 | 49.7 | 1023.7 | |||||||||||||||
| Total | 0.0 | |||||||||||||||||